Bryn Mawr, CA

9:56 PM PST on January 26, 2015 (GMT -0800)
Loma Linda | Change Station
CLOSE
Current Station
Personal Weather Station
Location: Loma Linda, CA
Elevation: 1240 ft
Nearby Weather Stations

Elev 1240 ft 34.04 °N, 117.22 °W | Updated 8 seconds ago

Overcast
Overcast
55.2 °F
Feels Like 55.2 °F
N
0.0
Wind Variable Wind from NNW
Gusts 0.0 mph

Today
High -- | Low -- °F
--% Chance of Precip.
Yesterday
High -- | Low -- °F
Precip. -- in
6:49 AM 5:13 PM
Waxing Crescent, 50% visible
Pressure 30.10 in
Visibility 7.0 miles
Clouds Overcast 1600 ft
Dew Point 54 °F
Humidity 95%
Rainfall 0.17 in
Snow Depth Not available.
UV 0 out of 12
Pollen 7.60 out of 12
Air Quality Not available.
Flu Activity Not available.
METAR KSBD 270450Z 00000KT 7SM OVC016 13/12 A3010

More Conditions Fewer Conditions

Pressure 30.10 in
Visibility 7.0 miles
Clouds Overcast 1600 ft
Dew Point 54 °F
Humidity 95%
Rainfall 0.17 in
Snow Depth Not available.
UV 0 out of 12
Pollen 7.60 out of 12
Air Quality Not available.
Flu Activity Not available.
METAR KSBD 270450Z 00000KT 7SM OVC016 13/12 A3010

More Conditions Fewer Conditions

10-Day Weather Forecast

Almanac

Astronomy

Jan. 26, 2015 Rise Set
Actual Time
Civil Twilight
Nautical Twilight
Astronomical Twilight
Moon
Length of Visible Light
Length of Day
Tomorrow will be .
, % of the Moon is Illuminated

Today's Extremes

State Highs State Lows

Community

WunderPhotos

Upload Photos

1,790,536 photos uploaded!

WunderBlogs® & News

Nearby

Air Quality

  Air Quality AQ Index Pollutant
Not available.

Snow Depth

Station Depth Elevation

Earthquake Activity

City Distance Mag. Time & Date
Minimum magnitude displayed is 2.5.

Coastal Water Temperatures

Place Temperature

Nearby Weather Stations